KBCE/BCE METAR and TAF weather

Enter ICAO airport designator
Station Type Date Time Source
KBCE METAR 2018/07/19 06:53 UTC NOAA

KBCE 190653Z AUTO 23005KT 10SM CLR 16/11 A3039 RMK AO2 SLP149 T01560111 403110117


Station Type Date Time Source
KBCE Decoded METAR 2018/07/19 06:53 UTC NOAA

BRYCE CANYON AIRPORT, UT, United States (KBCE) 37-42N 112-09W 2312M
Jul 19, 2018 - 02:53 AM EDT / 2018.07.19 0653 UTC
Wind: from the SW (230 degrees) at 6 MPH (5 KT):0
Visibility: 10 mile(s):0
Sky conditions: clear
Temperature: 60.1 F (15.6 C)
Dew Point: 52.0 F (11.1 C)
Relative Humidity: 74%
Pressure (altimeter): 30.39 in. Hg (1029 hPa)
ob: KBCE 190653Z AUTO 23005KT 10SM CLR 16/11 A3039 RMK AO2 SLP149 T01560111 403110117
cycle: 7

Station Type Date Time Source
KBCE TAF 2018/07/19 06:22 UTC NOAA

TAF KBCE 190520Z 1906/2006 28006KT P6SM SCT080 SCT120
FM192000 29008KT P6SM VCSH SCT080 BKN120
FM200000 29006KT P6SM VCTS SCT080CB BKN120
FM200300 27006KT P6SM VCSH SCT080 BKN120


Example: see airport list